createdAt,value
2022-11-12T00:01:10.298Z,3.78
2022-11-12T00:03:57.318Z,3.68
2022-11-12T00:06:42.930Z,3.53
2022-11-12T00:09:28.100Z,3.42
2022-11-12T00:12:13.195Z,3.68
2022-11-12T00:14:58.578Z,3.57
2022-11-12T00:17:44.086Z,3.62
2022-11-12T00:20:29.122Z,3.65
2022-11-12T00:23:14.883Z,3.72
2022-11-12T00:26:01.393Z,3.72
2022-11-12T00:28:46.471Z,3.59
2022-11-12T00:31:31.718Z,3.80
2022-11-12T00:34:17.034Z,3.70
2022-11-12T00:37:02.862Z,3.80
2022-11-12T00:39:48.072Z,3.77
2022-11-12T00:42:33.399Z,3.75
2022-11-12T00:45:19.836Z,3.68
2022-11-12T00:48:05.073Z,3.44
2022-11-12T00:50:50.361Z,3.31
2022-11-12T00:53:35.664Z,3.02
2022-11-12T00:56:21.044Z,3.49
2022-11-12T00:59:06.307Z,3.59
2022-11-12T01:01:51.797Z,3.47
2022-11-12T01:04:36.972Z,3.47
2022-11-12T01:07:22.227Z,3.53
2022-11-12T01:10:09.028Z,3.46
2022-11-12T01:12:54.641Z,3.29
2022-11-12T01:15:43.042Z,3.43
2022-11-12T01:18:28.685Z,3.34
2022-11-12T01:21:14.598Z,3.32
2022-11-12T01:24:01.349Z,3.53
2022-11-12T01:26:47.752Z,3.50
2022-11-12T01:29:32.629Z,3.56
2022-11-12T01:32:17.862Z,3.40
2022-11-12T01:35:03.449Z,3.38
2022-11-12T01:37:48.697Z,2.82
2022-11-12T01:40:34.092Z,3.56
2022-11-12T01:43:19.336Z,3.55
2022-11-12T01:46:27.091Z,3.47
2022-11-12T01:49:19.340Z,3.40
2022-11-12T01:52:14.094Z,3.47
2022-11-12T01:55:05.409Z,3.50
2022-11-12T01:58:06.568Z,3.26
2022-11-12T02:00:51.999Z,3.28
2022-11-12T02:03:37.176Z,3.48
2022-11-12T02:06:23.619Z,3.48
2022-11-12T02:09:09.652Z,3.45
2022-11-12T02:11:54.704Z,3.49
2022-11-12T02:14:39.908Z,3.52
2022-11-12T02:17:25.183Z,3.44
2022-11-12T02:20:12.701Z,3.54
2022-11-12T02:22:57.669Z,3.52
2022-11-12T02:25:42.665Z,3.27
2022-11-12T02:28:31.362Z,3.41
2022-11-12T02:31:16.619Z,3.26
2022-11-12T02:34:02.667Z,3.49
2022-11-12T02:36:47.905Z,3.27
2022-11-12T02:39:33.316Z,3.38
2022-11-12T02:42:18.687Z,3.21
2022-11-12T02:45:24.480Z,3.17
2022-11-12T02:48:09.512Z,3.37
2022-11-12T02:50:54.746Z,3.35
2022-11-12T02:53:39.943Z,3.22
2022-11-12T02:56:24.838Z,3.17
2022-11-12T02:59:10.100Z,3.14
2022-11-12T03:01:55.354Z,3.23
2022-11-12T03:04:44.238Z,3.22
2022-11-12T03:07:31.780Z,3.20
2022-11-12T03:10:16.736Z,3.28
2022-11-12T03:13:02.394Z,3.20
2022-11-12T03:15:47.676Z,3.14
2022-11-12T03:18:33.218Z,2.92
2022-11-12T03:21:18.384Z,3.07
2022-11-12T03:24:03.923Z,3.08
2022-11-12T03:26:49.294Z,2.88
2022-11-12T03:29:34.510Z,3.07
2022-11-12T03:32:19.685Z,2.97
2022-11-12T03:35:05.387Z,2.96
2022-11-12T03:37:50.817Z,2.91
2022-11-12T03:40:36.147Z,2.99
2022-11-12T03:43:21.580Z,3.03
2022-11-12T03:46:06.841Z,2.77
2022-11-12T03:48:53.204Z,3.04
2022-11-12T03:51:38.495Z,3.10
2022-11-12T03:54:23.572Z,3.11
2022-11-12T03:57:08.776Z,3.06
2022-11-12T03:59:54.133Z,3.03
2022-11-12T04:02:39.402Z,2.99
2022-11-12T04:05:43.642Z,3.09
2022-11-12T04:08:37.890Z,3.03
2022-11-12T04:11:23.766Z,3.06
2022-11-12T04:14:08.778Z,2.68
2022-11-12T04:17:32.172Z,2.97
2022-11-12T04:20:35.897Z,2.99
2022-11-12T04:23:21.143Z,2.92
2022-11-12T04:26:24.193Z,2.83
2022-11-12T04:29:28.136Z,2.72
2022-11-12T04:32:14.088Z,2.71
2022-11-12T04:34:59.459Z,2.74
2022-11-12T04:37:45.328Z,2.78
2022-11-12T04:40:50.325Z,2.82
2022-11-12T04:43:54.207Z,2.70
2022-11-12T04:46:39.497Z,2.76
2022-11-12T04:49:24.836Z,3.00
2022-11-12T04:52:10.157Z,2.80
2022-11-12T04:54:56.214Z,2.87
2022-11-12T04:57:41.125Z,2.73
2022-11-12T05:00:26.485Z,2.64
2022-11-12T05:03:11.964Z,2.84
2022-11-12T05:06:25.586Z,3.00
2022-11-12T05:09:10.971Z,2.90
2022-11-12T05:11:57.120Z,2.70
2022-11-12T05:14:42.266Z,2.76
2022-11-12T05:17:27.394Z,2.77
2022-11-12T05:20:14.351Z,2.82
2022-11-12T05:23:06.627Z,2.93
2022-11-12T05:25:52.517Z,2.60
2022-11-12T05:28:37.662Z,2.71
2022-11-12T05:31:23.193Z,2.70
2022-11-12T05:34:08.573Z,2.53
2022-11-12T05:36:53.860Z,2.75
2022-11-12T05:39:39.324Z,2.66
2022-11-12T05:42:24.591Z,2.61
2022-11-12T05:45:10.114Z,2.67
2022-11-12T05:47:55.402Z,2.60
2022-11-12T05:50:58.569Z,2.65
2022-11-12T05:53:46.104Z,2.69
2022-11-12T05:56:31.640Z,2.79
2022-11-12T05:59:16.680Z,2.69
2022-11-12T06:02:01.902Z,2.66
2022-11-12T06:04:47.027Z,2.78
2022-11-12T06:07:32.220Z,2.63
2022-11-12T06:10:20.480Z,2.58
2022-11-12T06:13:05.970Z,2.65
2022-11-12T06:15:55.238Z,2.50
2022-11-12T06:18:40.210Z,2.10
2022-11-12T06:21:27.512Z,2.13
2022-11-12T06:24:12.734Z,2.20
2022-11-12T06:26:57.955Z,2.08
2022-11-12T06:29:43.180Z,1.94
2022-11-12T06:32:28.147Z,2.07
2022-11-12T06:35:13.940Z,2.01
2022-11-12T06:37:59.028Z,1.95
2022-11-12T06:40:44.271Z,1.93
2022-11-12T06:43:32.116Z,2.01
2022-11-12T06:46:18.147Z,2.07
2022-11-12T06:49:03.683Z,2.10
2022-11-12T06:51:51.356Z,2.13
2022-11-12T06:54:36.638Z,2.01
2022-11-12T06:57:21.841Z,2.12
2022-11-12T07:00:09.470Z,2.13
2022-11-12T07:02:54.576Z,1.92
2022-11-12T07:05:39.729Z,2.06
2022-11-12T07:08:25.361Z,2.14
2022-11-12T07:11:11.387Z,1.97
2022-11-12T07:13:56.815Z,2.07
2022-11-12T07:16:41.930Z,2.23
2022-11-12T07:19:27.296Z,2.46
2022-11-12T07:22:12.717Z,2.32
2022-11-12T07:24:57.795Z,2.22
2022-11-12T07:27:42.927Z,2.10
2022-11-12T07:30:28.231Z,2.06
2022-11-12T07:33:13.215Z,2.12
2022-11-12T07:36:03.136Z,2.27
2022-11-12T07:38:51.818Z,2.42
2022-11-12T07:41:36.989Z,2.46
2022-11-12T07:44:21.960Z,2.35
2022-11-12T07:47:07.324Z,2.41
2022-11-12T07:49:52.677Z,2.56
2022-11-12T07:52:37.879Z,2.67
2022-11-12T07:55:23.069Z,2.87
2022-11-12T07:58:08.096Z,2.99
2022-11-12T08:00:54.013Z,3.04
2022-11-12T08:03:39.223Z,2.82
2022-11-12T08:06:25.084Z,2.84
2022-11-12T08:09:10.728Z,2.95
2022-11-12T08:11:56.024Z,2.83
2022-11-12T08:14:41.323Z,2.97
2022-11-12T08:17:26.751Z,2.99
2022-11-12T08:20:13.072Z,3.07
2022-11-12T08:23:01.405Z,3.15
2022-11-12T08:25:46.705Z,3.06
2022-11-12T08:28:33.429Z,3.26
2022-11-12T08:31:23.743Z,3.37
2022-11-12T08:34:18.680Z,3.29
2022-11-12T08:37:07.659Z,3.35
2022-11-12T08:39:52.878Z,3.51
2022-11-12T08:42:38.273Z,3.50
2022-11-12T08:45:23.486Z,3.51
2022-11-12T08:48:14.367Z,3.61
2022-11-12T08:51:02.429Z,3.54
2022-11-12T08:53:47.259Z,3.31
2022-11-12T08:56:33.940Z,3.69
2022-11-12T08:59:18.757Z,3.67
2022-11-12T09:02:04.065Z,3.85
2022-11-12T09:04:49.303Z,4.05
2022-11-12T09:07:50.999Z,3.85
2022-11-12T09:10:37.410Z,3.73
2022-11-12T09:13:23.442Z,3.91
2022-11-12T09:16:10.149Z,3.66
2022-11-12T09:18:55.651Z,3.52
2022-11-12T09:21:40.758Z,3.80
2022-11-12T09:24:26.052Z,3.86
2022-11-12T09:27:11.102Z,3.88
2022-11-12T09:29:56.568Z,3.96
2022-11-12T09:32:42.083Z,4.09
2022-11-12T09:35:27.387Z,3.90
2022-11-12T09:38:14.901Z,3.96
2022-11-12T09:41:13.780Z,4.51
2022-11-12T09:44:25.382Z,4.05
2022-11-12T09:47:32.634Z,4.00
2022-11-12T09:50:56.071Z,4.18
2022-11-12T09:53:50.299Z,4.54
2022-11-12T09:56:35.181Z,4.72
2022-11-12T09:59:22.444Z,4.76
2022-11-12T10:02:26.344Z,4.66
2022-11-12T10:05:30.315Z,4.65
2022-11-12T10:08:39.498Z,4.74
2022-11-12T10:12:21.013Z,4.87
2022-11-12T10:15:43.833Z,4.99
2022-11-12T10:18:39.697Z,5.05
2022-11-12T10:21:30.943Z,4.83
2022-11-12T10:24:16.035Z,4.87
2022-11-12T10:27:22.781Z,5.06
2022-11-12T10:30:16.904Z,5.05
2022-11-12T10:33:03.331Z,5.05
2022-11-12T10:35:49.213Z,5.44
2022-11-12T10:38:35.746Z,5.24
2022-11-12T10:41:25.444Z,5.32
2022-11-12T10:44:17.431Z,5.61
2022-11-12T10:47:21.757Z,5.75
2022-11-12T10:50:10.269Z,5.83
2022-11-12T10:52:59.092Z,5.80
2022-11-12T10:56:02.488Z,5.79
2022-11-12T10:59:10.038Z,5.79
2022-11-12T11:02:00.298Z,5.49
2022-11-12T11:04:46.440Z,5.44
2022-11-12T11:07:31.609Z,5.56
2022-11-12T11:10:29.199Z,5.55
2022-11-12T11:13:23.212Z,5.85
2022-11-12T11:16:14.592Z,5.97
2022-11-12T11:19:04.097Z,6.03
2022-11-12T11:21:49.146Z,6.17
2022-11-12T11:24:44.869Z,6.37
2022-11-12T11:27:47.425Z,6.26
2022-11-12T11:30:33.644Z,6.11
2022-11-12T11:33:40.071Z,6.34
2022-11-12T11:36:46.327Z,6.52
2022-11-12T11:39:31.267Z,6.48
2022-11-12T11:42:45.226Z,6.59
2022-11-12T11:45:37.311Z,6.60
2022-11-12T11:48:50.747Z,7.08
2022-11-12T11:52:07.682Z,6.97
2022-11-12T11:55:12.234Z,7.24
2022-11-12T11:58:15.530Z,7.41
2022-11-12T12:01:20.439Z,7.63
2022-11-12T12:04:30.504Z,7.75
2022-11-12T12:07:27.987Z,7.71
2022-11-12T12:10:40.217Z,7.35
2022-11-12T12:13:34.222Z,7.66
2022-11-12T12:16:37.418Z,7.69
2022-11-12T12:19:46.856Z,7.91
2022-11-12T12:22:48.734Z,8.22
2022-11-12T12:25:38.964Z,8.37
2022-11-12T12:28:53.823Z,8.78
2022-11-12T12:31:47.640Z,8.30
2022-11-12T12:34:42.451Z,8.38
2022-11-12T12:37:35.622Z,8.69
2022-11-12T12:40:35.592Z,8.74
2022-11-12T12:43:28.833Z,8.53
2022-11-12T12:46:17.089Z,8.77
2022-11-12T12:49:05.123Z,8.73
2022-11-12T12:51:55.429Z,8.83
2022-11-12T12:54:40.640Z,9.16
2022-11-12T12:57:38.068Z,8.98
2022-11-12T13:00:29.400Z,9.16
2022-11-12T13:03:46.159Z,9.16
2022-11-12T13:06:35.248Z,9.49
2022-11-12T13:09:25.813Z,9.59
2022-11-12T13:12:11.021Z,9.83
2022-11-12T13:15:19.535Z,9.64
2022-11-12T13:18:12.921Z,10.02
2022-11-12T13:21:16.059Z,10.28
2022-11-12T13:24:28.748Z,10.13
2022-11-12T13:27:13.592Z,9.90
2022-11-12T13:29:58.973Z,9.67
2022-11-12T13:32:54.791Z,9.77
2022-11-12T13:35:40.787Z,9.71
2022-11-12T13:38:26.618Z,9.79
2022-11-12T13:41:19.533Z,9.82
2022-11-12T13:44:09.878Z,9.92
2022-11-12T13:46:56.078Z,9.80
2022-11-12T13:49:43.055Z,9.89
2022-11-12T13:52:28.936Z,9.67
2022-11-12T13:55:18.273Z,9.90
2022-11-12T13:58:03.510Z,9.86
2022-11-12T14:01:00.881Z,10.01
2022-11-12T14:03:51.613Z,9.98
2022-11-12T14:06:50.827Z,9.64
2022-11-12T14:10:02.288Z,9.50
2022-11-12T14:13:06.296Z,8.86
2022-11-12T14:16:25.451Z,9.32
2022-11-12T14:19:52.734Z,9.54
2022-11-12T14:22:43.418Z,9.30
2022-11-12T14:25:28.808Z,9.04
2022-11-12T14:28:32.008Z,8.90
2022-11-12T14:31:25.129Z,8.69
2022-11-12T14:34:34.054Z,8.83
2022-11-12T14:37:43.333Z,8.53
2022-11-12T14:40:32.061Z,8.35
2022-11-12T14:43:41.473Z,7.94
2022-11-12T14:46:56.715Z,8.17
2022-11-12T14:49:45.454Z,8.20
2022-11-12T14:52:43.755Z,8.07
2022-11-12T14:55:33.023Z,8.09
2022-11-12T14:58:20.223Z,8.05
2022-11-12T15:04:42.320Z,7.80
2022-11-12T15:07:33.532Z,7.80
2022-11-12T15:10:35.753Z,7.75
2022-11-12T15:13:24.784Z,7.55
2022-11-12T15:16:11.910Z,7.26
2022-11-12T15:19:09.220Z,7.23
2022-11-12T15:21:56.906Z,7.19
2022-11-12T15:24:44.749Z,6.86
2022-11-12T15:27:35.762Z,6.98
2022-11-12T15:30:25.482Z,6.75
2022-11-12T15:33:13.713Z,6.56
2022-11-12T15:36:01.076Z,6.27
2022-11-12T15:38:54.241Z,6.23
2022-11-12T15:41:40.050Z,6.07
2022-11-12T15:44:25.727Z,6.13
2022-11-12T15:47:20.518Z,6.07
2022-11-12T15:50:16.836Z,6.02
2022-11-12T15:53:02.086Z,5.95
2022-11-12T15:55:47.399Z,5.92
2022-11-12T15:58:35.112Z,6.12
2022-11-12T16:01:21.347Z,6.08
2022-11-12T16:04:06.845Z,5.97
2022-11-12T16:06:51.805Z,5.87
2022-11-12T16:09:38.954Z,5.91
2022-11-12T16:12:24.320Z,5.71
2022-11-12T16:15:14.399Z,5.67
2022-11-12T16:18:02.325Z,5.70
2022-11-12T16:20:48.532Z,5.53
2022-11-12T16:23:33.872Z,5.34
2022-11-12T16:26:25.952Z,5.38
2022-11-12T16:29:14.121Z,5.17
2022-11-12T16:31:59.599Z,5.00
2022-11-12T16:34:44.586Z,4.99
2022-11-12T16:37:30.244Z,5.02
2022-11-12T16:40:21.118Z,5.05
2022-11-12T16:43:06.017Z,4.82
2022-11-12T16:45:51.286Z,4.99
2022-11-12T16:48:38.088Z,4.88
2022-11-12T16:51:23.551Z,4.95
2022-11-12T16:54:08.927Z,4.73
2022-11-12T16:56:54.221Z,4.66
2022-11-12T16:59:39.477Z,4.74
2022-11-12T17:02:24.944Z,4.60
2022-11-12T17:05:20.406Z,4.60
2022-11-12T17:08:05.715Z,4.31
2022-11-12T17:10:50.971Z,4.38
2022-11-12T17:13:38.679Z,4.39
2022-11-12T17:16:23.666Z,4.52
2022-11-12T17:19:10.608Z,4.50
2022-11-12T17:21:55.591Z,4.04
2022-11-12T17:24:40.954Z,4.45
2022-11-12T17:27:26.360Z,4.22
2022-11-12T17:30:32.104Z,4.17
2022-11-12T17:33:17.408Z,4.11
2022-11-12T17:36:04.906Z,4.22
2022-11-12T17:38:57.093Z,4.25
2022-11-12T17:41:42.311Z,4.04
2022-11-12T17:44:27.344Z,4.19
2022-11-12T17:47:13.151Z,3.84
2022-11-12T17:49:58.377Z,3.70
2022-11-12T17:52:43.872Z,3.68
2022-11-12T17:55:28.862Z,3.55
2022-11-12T17:58:13.823Z,3.79
2022-11-12T18:01:12.578Z,3.88
2022-11-12T18:03:58.711Z,3.92
2022-11-12T18:06:43.808Z,3.74
2022-11-12T18:09:28.950Z,3.25
2022-11-12T18:12:15.091Z,3.53
2022-11-12T18:15:00.021Z,3.73
2022-11-12T18:17:45.331Z,3.59
2022-11-12T18:20:30.546Z,3.54
2022-11-12T18:23:16.052Z,3.45
2022-11-12T18:26:01.305Z,3.67
2022-11-12T18:28:52.744Z,3.63
2022-11-12T18:31:38.154Z,3.52
2022-11-12T18:34:23.560Z,3.31
2022-11-12T18:37:08.775Z,3.23
2022-11-12T18:39:54.198Z,3.40
2022-11-12T18:42:39.454Z,2.90
2022-11-12T18:45:24.747Z,3.34
2022-11-12T18:48:10.170Z,3.24
2022-11-12T18:51:07.193Z,3.25
2022-11-12T18:53:52.717Z,3.09
2022-11-12T18:56:40.021Z,3.16
2022-11-12T18:59:30.598Z,3.20
2022-11-12T19:02:16.220Z,2.90
2022-11-12T19:05:01.483Z,2.87
2022-11-12T19:07:46.820Z,2.96
2022-11-12T19:10:32.073Z,3.07
2022-11-12T19:13:17.356Z,3.07
2022-11-12T19:16:08.034Z,2.87
2022-11-12T19:18:53.311Z,3.07
2022-11-12T19:21:38.892Z,3.01
2022-11-12T19:24:23.932Z,2.80
2022-11-12T19:27:08.894Z,2.87
2022-11-12T19:29:58.446Z,2.83
2022-11-12T19:32:47.287Z,2.71
2022-11-12T19:35:32.658Z,2.48
2022-11-12T19:38:17.806Z,2.66
2022-11-12T19:41:19.086Z,2.75
2022-11-12T19:44:05.390Z,2.66
2022-11-12T19:46:50.618Z,2.65
2022-11-12T19:49:36.292Z,2.59
2022-11-12T19:52:22.378Z,2.69
2022-11-12T19:55:07.954Z,2.66
2022-11-12T19:57:52.930Z,2.77
2022-11-12T20:00:38.369Z,2.71
2022-11-12T20:03:25.802Z,2.59
2022-11-12T20:06:16.632Z,2.70
2022-11-12T20:09:01.746Z,2.66
2022-11-12T20:11:46.698Z,2.46
2022-11-12T20:14:31.939Z,2.63
2022-11-12T20:17:17.227Z,2.49
2022-11-12T20:20:02.652Z,2.37
2022-11-12T20:22:47.796Z,2.25
2022-11-12T20:25:33.171Z,2.52
2022-11-12T20:28:18.604Z,2.58
2022-11-12T20:31:06.869Z,2.64
2022-11-12T20:33:52.577Z,2.60
2022-11-12T20:36:37.795Z,2.53
2022-11-12T20:39:22.889Z,2.66
2022-11-12T20:42:07.957Z,2.66
2022-11-12T20:44:53.707Z,2.30
2022-11-12T20:47:39.057Z,2.13
2022-11-12T20:50:24.687Z,2.02
2022-11-12T20:53:09.845Z,1.99
2022-11-12T20:55:54.976Z,2.14
2022-11-12T20:58:40.668Z,2.28
2022-11-12T21:01:27.965Z,2.42
2022-11-12T21:04:13.137Z,2.24
2022-11-12T21:07:02.389Z,2.19
2022-11-12T21:09:50.523Z,2.24
2022-11-12T21:12:36.010Z,2.25
2022-11-12T21:15:21.462Z,2.13
2022-11-12T21:18:06.466Z,1.93
2022-11-12T21:20:52.700Z,1.98
2022-11-12T21:23:40.949Z,1.62
2022-11-12T21:26:26.107Z,1.88
2022-11-12T21:29:13.552Z,1.81
2022-11-12T21:32:02.008Z,1.64
2022-11-12T21:34:47.416Z,1.48
2022-11-12T21:37:32.839Z,1.51
2022-11-12T21:40:18.496Z,1.46
2022-11-12T21:43:03.773Z,1.47
2022-11-12T21:45:49.186Z,1.35
2022-11-12T21:48:35.014Z,1.39
2022-11-12T21:51:23.096Z,1.38
2022-11-12T21:54:15.040Z,1.46
2022-11-12T21:57:00.346Z,1.23
2022-11-12T21:59:46.207Z,1.23
2022-11-12T22:02:31.220Z,1.51
2022-11-12T22:05:16.725Z,1.32
2022-11-12T22:08:02.235Z,1.21
2022-11-12T22:10:47.289Z,1.57
2022-11-12T22:13:35.591Z,1.60
2022-11-12T22:16:26.205Z,1.27
2022-11-12T22:19:12.825Z,1.02
2022-11-12T22:21:58.010Z,0.86
2022-11-12T22:24:43.400Z,1.11
2022-11-12T22:27:31.464Z,1.27
2022-11-12T22:30:16.922Z,1.13
2022-11-12T22:33:02.137Z,1.28
2022-11-12T22:35:47.518Z,0.41
2022-11-12T22:38:34.373Z,1.10
2022-11-12T22:41:25.547Z,1.01
2022-11-12T22:44:10.499Z,0.72
2022-11-12T22:46:55.772Z,1.16
2022-11-12T22:49:41.075Z,1.01
2022-11-12T22:52:26.491Z,1.05
2022-11-12T22:55:11.967Z,1.09
2022-11-12T22:57:59.674Z,1.28
2022-11-12T23:00:45.418Z,1.13
2022-11-12T23:03:32.139Z,0.91
2022-11-12T23:06:18.134Z,0.88
2022-11-12T23:09:04.034Z,0.59
2022-11-12T23:11:49.218Z,0.61
2022-11-12T23:14:36.761Z,0.51
2022-11-12T23:17:21.766Z,0.41
2022-11-12T23:20:07.745Z,0.65
2022-11-12T23:22:52.981Z,0.25
2022-11-12T23:25:38.374Z,0.45
2022-11-12T23:28:23.712Z,0.31
2022-11-12T23:31:18.713Z,-0.07
2022-11-12T23:34:03.875Z,-0.15
2022-11-12T23:37:09.371Z,-0.22
2022-11-12T23:39:54.500Z,-0.23
2022-11-12T23:42:39.529Z,-0.40
2022-11-12T23:45:24.780Z,-0.32
2022-11-12T23:48:09.925Z,0.09
2022-11-12T23:51:10.518Z,0.14
2022-11-12T23:53:55.742Z,-0.08
2022-11-12T23:56:40.872Z,-0.09
2022-11-12T23:59:25.765Z,-0.22
